sim
Sign-in with your pilot id or email,
or register
Callsign
Passwort

Schedule Details

Flight Number: DLH2069
Departure: Hamburg Airport (EDDH) at 12:15
Arrival: Munich Airport (EDDM) at 13:30
Route: Lufthansa Passenger Schedule. Enter filed route here before submitting Pirep.

Weather Information
Getting current METAR information for EDDH 282220Z 06002KT 9999 1200NW R23/P2000N R15/0500N BCFG NSC 10/10 Q1013 NOSIG
Getting current METAR information for EDDM 282220Z VRB02KT CAVOK 08/07 Q1015 NOSIG

Schedule Frequency

Route Map